createdAt,value
2023-01-17T00:37:12.101Z,1.42
2023-01-17T00:39:38.990Z,2.38
2023-01-17T00:42:05.752Z,0.57
2023-01-17T00:44:50.923Z,2.63
2023-01-17T00:47:36.067Z,3.58
2023-01-17T00:50:21.739Z,0.45
2023-01-17T00:53:06.953Z,0.22
2023-01-17T00:55:52.680Z,0.68
2023-01-17T00:58:37.784Z,0.93
2023-01-17T01:01:26.195Z,1.75
2023-01-17T01:04:11.855Z,2.20
2023-01-17T01:06:57.014Z,2.05
2023-01-17T01:09:42.310Z,2.28
2023-01-17T01:12:27.771Z,0.28
2023-01-17T01:15:13.347Z,0.52
2023-01-17T01:17:58.797Z,1.00
2023-01-17T01:20:44.318Z,0.47
2023-01-17T01:23:29.724Z,1.45
2023-01-17T01:26:15.172Z,2.20
2023-01-17T01:29:00.658Z,3.90
2023-01-17T01:31:46.294Z,0.22
2023-01-17T01:34:12.971Z,0.45
2023-01-17T01:36:39.770Z,2.13
2023-01-17T01:39:06.554Z,0.52
2023-01-17T01:41:33.203Z,0.08
2023-01-17T01:43:59.879Z,1.83
2023-01-17T01:46:30.177Z,2.55
2023-01-17T01:49:05.873Z,3.80
2023-01-17T01:51:42.021Z,0.85
2023-01-17T01:54:15.319Z,1.67
2023-01-17T01:56:42.467Z,1.45
2023-01-17T01:59:11.131Z,0.45
2023-01-17T02:01:37.917Z,1.55
2023-01-17T02:04:09.887Z,2.55
2023-01-17T02:06:48.182Z,1.00
2023-01-17T02:09:17.041Z,1.17
2023-01-17T02:11:46.052Z,1.73
2023-01-17T02:14:21.795Z,1.52
2023-01-17T02:17:12.267Z,1.67
2023-01-17T02:20:05.482Z,2.65
2023-01-17T02:23:02.942Z,2.42
2023-01-17T02:26:00.884Z,4.03
2023-01-17T02:28:58.335Z,4.20
2023-01-17T02:31:37.491Z,2.78
2023-01-17T02:34:13.998Z,0.32
2023-01-17T02:36:53.281Z,3.47
2023-01-17T02:39:22.614Z,3.03
2023-01-17T02:41:54.924Z,1.50
2023-01-17T02:44:22.279Z,5.35
2023-01-17T02:46:56.996Z,4.43
2023-01-17T02:49:28.432Z,1.83
2023-01-17T02:52:22.701Z,0.82
2023-01-17T02:55:19.063Z,1.27
2023-01-17T02:58:06.091Z,2.28
2023-01-17T03:00:32.781Z,5.93
2023-01-17T03:03:33.824Z,1.45
2023-01-17T03:06:29.687Z,2.15
2023-01-17T03:08:56.428Z,3.70
2023-01-17T03:11:23.214Z,4.15
2023-01-17T03:13:55.559Z,4.00
2023-01-17T03:16:23.315Z,3.42
2023-01-17T03:18:50.191Z,1.83
2023-01-17T03:21:16.916Z,5.38
2023-01-17T03:23:44.304Z,5.25
2023-01-17T03:26:10.957Z,4.32
2023-01-17T03:28:37.642Z,5.47
2023-01-17T03:31:04.597Z,1.88
2023-01-17T03:33:31.214Z,1.90
2023-01-17T03:36:00.872Z,3.85
2023-01-17T03:38:28.819Z,5.00
2023-01-17T03:40:55.665Z,2.88
2023-01-17T03:43:22.282Z,9.75
2023-01-17T03:45:51.919Z,2.38
2023-01-17T03:48:18.699Z,3.35
2023-01-17T03:50:45.299Z,4.55
2023-01-17T03:53:12.012Z,4.15
2023-01-17T03:55:38.731Z,2.33
2023-01-17T03:58:05.955Z,2.25
2023-01-17T04:00:32.711Z,4.68
2023-01-17T04:03:00.784Z,1.95
2023-01-17T04:05:27.448Z,5.63
2023-01-17T04:07:54.120Z,4.57
2023-01-17T04:10:20.719Z,5.15
2023-01-17T04:12:47.451Z,1.92
2023-01-17T04:15:14.154Z,2.15
2023-01-17T04:17:41.468Z,4.28
2023-01-17T04:20:16.396Z,1.85
2023-01-17T04:22:44.432Z,0.98
2023-01-17T04:25:11.248Z,2.78
2023-01-17T04:27:37.842Z,1.10
2023-01-17T04:30:04.876Z,2.25
2023-01-17T04:32:31.465Z,3.95
2023-01-17T04:34:58.054Z,1.02
2023-01-17T04:37:24.697Z,2.00
2023-01-17T04:39:51.364Z,4.50
2023-01-17T04:42:17.964Z,4.60
2023-01-17T04:44:44.854Z,3.38
2023-01-17T04:47:11.491Z,2.35
2023-01-17T04:49:38.094Z,4.25
2023-01-17T04:52:04.887Z,2.83
2023-01-17T04:54:31.517Z,5.03
2023-01-17T04:56:58.171Z,1.10
2023-01-17T04:59:26.115Z,9.98
2023-01-17T05:01:52.745Z,1.10
2023-01-17T05:04:19.538Z,2.97
2023-01-17T05:06:46.215Z,4.03
2023-01-17T05:09:12.943Z,1.92
2023-01-17T05:11:39.693Z,4.45
2023-01-17T05:14:06.329Z,4.25
2023-01-17T05:16:32.960Z,8.40
2023-01-17T05:18:59.545Z,3.33
2023-01-17T05:21:26.359Z,4.43
2023-01-17T05:23:53.137Z,8.43
2023-01-17T05:26:19.927Z,3.83
2023-01-17T05:28:46.654Z,1.90
2023-01-17T05:31:13.617Z,4.38
2023-01-17T05:33:40.372Z,2.97
2023-01-17T05:36:07.635Z,2.58
2023-01-17T05:38:34.253Z,2.97
2023-01-17T05:41:02.222Z,2.13
2023-01-17T05:43:29.303Z,2.65
2023-01-17T05:45:55.989Z,2.92
2023-01-17T05:48:22.751Z,2.25
2023-01-17T05:50:49.381Z,7.60
2023-01-17T05:53:16.737Z,7.32
2023-01-17T05:55:43.700Z,2.78
2023-01-17T05:58:16.533Z,4.32
2023-01-17T06:00:43.946Z,3.35
2023-01-17T06:03:11.517Z,9.52
2023-01-17T06:05:38.264Z,4.53
2023-01-17T06:08:05.332Z,3.58
2023-01-17T06:10:32.413Z,6.63
2023-01-17T06:13:05.760Z,3.75
2023-01-17T06:15:32.678Z,4.97
2023-01-17T06:18:06.454Z,5.50
2023-01-17T06:20:34.054Z,8.50
2023-01-17T06:23:02.650Z,5.80
2023-01-17T06:25:39.856Z,3.83
2023-01-17T06:28:07.823Z,9.05
2023-01-17T06:30:34.582Z,4.97
2023-01-17T06:33:01.629Z,5.72
2023-01-17T06:35:28.449Z,5.32
2023-01-17T06:37:55.989Z,7.28
2023-01-17T06:40:22.848Z,3.47
2023-01-17T06:42:49.584Z,4.05
2023-01-17T06:45:16.646Z,4.00
2023-01-17T06:47:43.331Z,8.48
2023-01-17T06:50:13.743Z,3.33
2023-01-17T06:52:41.707Z,6.93
2023-01-17T06:55:09.333Z,5.03
2023-01-17T06:57:36.289Z,8.57
2023-01-17T07:00:04.497Z,4.90
2023-01-17T07:02:33.246Z,3.85
2023-01-17T07:04:59.884Z,4.60
2023-01-17T07:07:26.698Z,4.15
2023-01-17T07:09:53.324Z,4.03
2023-01-17T07:12:19.898Z,3.63
2023-01-17T07:14:46.656Z,6.30
2023-01-17T07:17:13.302Z,4.47
2023-01-17T07:19:40.042Z,6.20
2023-01-17T07:22:06.680Z,2.88
2023-01-17T07:24:36.281Z,3.10
2023-01-17T07:27:03.395Z,5.40
2023-01-17T07:29:30.121Z,5.03
2023-01-17T07:31:56.791Z,2.92
2023-01-17T07:34:23.491Z,4.63
2023-01-17T07:36:50.100Z,3.97
2023-01-17T07:39:16.903Z,2.95
2023-01-17T07:41:43.644Z,3.60
2023-01-17T07:44:10.971Z,4.28
2023-01-17T07:46:37.700Z,5.47
2023-01-17T07:49:04.405Z,7.05
2023-01-17T07:51:31.219Z,6.80
2023-01-17T07:53:58.212Z,10.02
2023-01-17T07:56:25.018Z,4.70
2023-01-17T07:58:51.785Z,5.40
2023-01-17T08:01:18.604Z,6.07
2023-01-17T08:03:45.392Z,5.57
2023-01-17T08:06:26.669Z,5.00
2023-01-17T08:08:56.391Z,5.78
2023-01-17T08:11:23.140Z,6.30
2023-01-17T08:13:49.983Z,6.88
2023-01-17T08:16:16.708Z,4.82
2023-01-17T08:18:43.387Z,5.38
2023-01-17T08:21:14.905Z,9.38
2023-01-17T08:23:41.573Z,4.10
2023-01-17T08:26:08.468Z,4.57
2023-01-17T08:28:35.179Z,5.03
2023-01-17T08:31:09.577Z,3.40
2023-01-17T08:33:36.417Z,6.68
2023-01-17T08:36:03.154Z,6.10
2023-01-17T08:38:29.777Z,6.97
2023-01-17T08:41:00.010Z,8.65
2023-01-17T08:43:26.646Z,5.55
2023-01-17T08:45:55.935Z,3.30
2023-01-17T08:48:25.646Z,8.52
2023-01-17T08:50:52.371Z,10.10
2023-01-17T08:53:21.552Z,8.15
2023-01-17T08:55:48.299Z,6.63
2023-01-17T08:58:15.038Z,6.18
2023-01-17T09:00:42.754Z,6.50
2023-01-17T09:03:14.501Z,6.68
2023-01-17T09:05:41.375Z,7.72
2023-01-17T09:08:08.815Z,10.40
2023-01-17T09:10:35.456Z,7.07
2023-01-17T09:13:02.159Z,7.75
2023-01-17T09:15:28.777Z,9.02
2023-01-17T09:17:56.174Z,6.90
2023-01-17T09:20:23.861Z,9.45
2023-01-17T09:22:51.387Z,8.10
2023-01-17T09:25:18.078Z,16.70
2023-01-17T09:27:46.549Z,8.77
2023-01-17T09:30:13.769Z,9.98
2023-01-17T09:32:40.483Z,16.20
2023-01-17T09:35:08.600Z,14.43
2023-01-17T09:37:35.435Z,10.50
2023-01-17T09:40:02.192Z,11.07
2023-01-17T09:42:39.928Z,9.18
2023-01-17T09:45:16.813Z,11.65
2023-01-17T09:47:49.459Z,11.20
2023-01-17T09:50:55.854Z,10.65
2023-01-17T09:53:22.585Z,11.43
2023-01-17T09:56:03.442Z,14.60
2023-01-17T09:58:36.153Z,12.93
2023-01-17T10:01:21.105Z,15.80
2023-01-17T10:04:27.124Z,8.93
2023-01-17T10:07:19.515Z,12.07
2023-01-17T10:10:06.487Z,9.90
2023-01-17T10:12:45.643Z,11.70
2023-01-17T10:15:34.007Z,10.23
2023-01-17T10:18:28.806Z,10.98
2023-01-17T10:21:04.482Z,12.95
2023-01-17T10:23:58.413Z,14.30
2023-01-17T10:26:26.505Z,13.43
2023-01-17T10:28:59.477Z,12.65
2023-01-17T10:31:30.994Z,13.00
2023-01-17T10:34:06.834Z,8.38
2023-01-17T10:36:41.416Z,14.32
2023-01-17T10:41:45.102Z,6.80
2023-01-17T10:44:49.069Z,6.97
2023-01-17T10:47:20.835Z,8.57
2023-01-17T10:49:51.944Z,8.60
2023-01-17T10:52:55.526Z,12.20
2023-01-17T10:55:22.101Z,12.98
2023-01-17T10:57:49.411Z,12.88
2023-01-17T11:00:31.913Z,10.07
2023-01-17T11:03:00.151Z,8.43
2023-01-17T11:05:30.155Z,9.55
2023-01-17T11:08:00.670Z,11.82
2023-01-17T11:10:40.826Z,9.52
2023-01-17T11:13:23.593Z,9.77
2023-01-17T11:15:53.868Z,11.30
2023-01-17T11:18:21.910Z,7.20
2023-01-17T11:20:49.459Z,9.00
2023-01-17T11:23:24.084Z,8.85
2023-01-17T11:28:30.508Z,6.03
2023-01-17T11:30:59.937Z,9.17
2023-01-17T11:33:55.533Z,10.10
2023-01-17T11:36:28.439Z,11.20
2023-01-17T11:39:28.251Z,8.95
2023-01-17T11:41:55.724Z,6.72
2023-01-17T11:44:28.833Z,7.05
2023-01-17T11:47:14.641Z,9.77
2023-01-17T11:49:43.997Z,10.30
2023-01-17T11:52:24.791Z,10.35
2023-01-17T11:54:54.211Z,8.68
2023-01-17T11:57:38.878Z,5.30
2023-01-17T12:00:27.392Z,6.50
2023-01-17T12:03:31.976Z,6.35
2023-01-17T12:06:17.920Z,10.65
2023-01-17T12:09:12.629Z,4.05
2023-01-17T12:12:08.274Z,5.57
2023-01-17T12:15:00.139Z,4.68
2023-01-17T12:17:44.866Z,6.38
2023-01-17T12:20:27.972Z,6.72
2023-01-17T12:23:20.034Z,5.45
2023-01-17T12:25:59.416Z,4.80
2023-01-17T12:28:53.852Z,4.70
2023-01-17T12:31:29.432Z,4.43
2023-01-17T12:34:07.258Z,3.30
2023-01-17T12:36:49.349Z,3.45
2023-01-17T12:39:17.638Z,5.60
2023-01-17T12:41:50.407Z,2.22
2023-01-17T12:44:19.234Z,4.05
2023-01-17T12:47:02.583Z,7.50
2023-01-17T12:49:34.637Z,5.35
2023-01-17T12:52:17.995Z,3.70
2023-01-17T12:54:50.014Z,3.17
2023-01-17T12:57:23.183Z,6.45
2023-01-17T13:00:02.406Z,3.33
2023-01-17T13:03:06.457Z,1.52
2023-01-17T13:05:45.953Z,2.88
2023-01-17T13:08:28.676Z,3.67
2023-01-17T13:11:11.395Z,2.45
2023-01-17T13:13:39.174Z,3.60
2023-01-17T13:16:16.755Z,4.10
2023-01-17T13:18:49.219Z,3.83
2023-01-17T13:21:35.288Z,8.35
2023-01-17T13:24:22.087Z,2.63
2023-01-17T13:26:59.493Z,4.35
2023-01-17T13:30:00.983Z,1.75
2023-01-17T13:32:53.673Z,6.25
2023-01-17T13:35:50.173Z,6.05
2023-01-17T13:38:33.095Z,3.08
2023-01-17T13:41:30.848Z,3.63
2023-01-17T13:44:19.379Z,4.18
2023-01-17T13:46:56.050Z,5.95
2023-01-17T13:49:31.734Z,4.53
2023-01-17T13:52:20.869Z,2.70
2023-01-17T13:54:50.342Z,4.40
2023-01-17T13:57:29.226Z,2.50
2023-01-17T13:59:58.133Z,5.45
2023-01-17T14:02:35.441Z,3.58
2023-01-17T14:05:12.451Z,4.75
2023-01-17T14:07:55.205Z,3.28
2023-01-17T14:10:30.693Z,5.20
2023-01-17T14:12:57.472Z,4.47
2023-01-17T14:15:27.061Z,3.25
2023-01-17T14:18:03.144Z,3.40
2023-01-17T14:21:07.276Z,4.18
2023-01-17T14:23:46.385Z,3.47
2023-01-17T14:26:29.757Z,2.40
2023-01-17T14:28:57.863Z,5.50
2023-01-17T14:31:25.093Z,3.35
2023-01-17T14:33:52.138Z,2.67
2023-01-17T14:36:32.332Z,4.40
2023-01-17T14:38:58.983Z,4.75
2023-01-17T14:41:29.092Z,3.90
2023-01-17T14:43:59.525Z,3.90
2023-01-17T14:46:32.233Z,4.22
2023-01-17T14:49:01.804Z,5.75
2023-01-17T14:51:29.142Z,3.47
2023-01-17T14:54:03.076Z,4.80
2023-01-17T14:56:30.960Z,5.25
2023-01-17T14:59:17.393Z,4.38
2023-01-17T15:02:06.315Z,3.42
2023-01-17T15:04:39.324Z,4.10
2023-01-17T15:07:06.791Z,5.03
2023-01-17T15:09:36.196Z,2.88
2023-01-17T15:12:03.047Z,7.47
2023-01-17T15:14:34.739Z,2.00
2023-01-17T15:17:10.327Z,3.15
2023-01-17T15:19:45.174Z,5.40
2023-01-17T15:22:12.577Z,4.45
2023-01-17T15:24:44.621Z,3.40
2023-01-17T15:27:16.948Z,2.80
2023-01-17T15:29:45.432Z,2.40
2023-01-17T15:32:19.989Z,3.35
2023-01-17T15:34:49.329Z,4.88
2023-01-17T15:37:32.852Z,9.20
2023-01-17T15:40:15.842Z,2.75
2023-01-17T15:42:56.669Z,5.47
2023-01-17T15:45:28.459Z,4.65
2023-01-17T15:47:55.118Z,3.67
2023-01-17T15:50:23.647Z,4.55
2023-01-17T15:52:51.904Z,7.13
2023-01-17T15:55:32.405Z,4.32
2023-01-17T15:57:59.824Z,4.95
2023-01-17T16:00:26.454Z,5.88
2023-01-17T16:02:57.052Z,3.03
2023-01-17T16:05:24.081Z,6.75
2023-01-17T16:07:54.572Z,2.85
2023-01-17T16:10:31.637Z,7.72
2023-01-17T16:12:59.449Z,5.30
2023-01-17T16:15:27.250Z,4.82
2023-01-17T16:18:00.946Z,4.57
2023-01-17T16:20:33.036Z,5.05
2023-01-17T16:23:00.525Z,5.47
2023-01-17T16:25:32.305Z,2.95
2023-01-17T16:27:59.824Z,3.33
2023-01-17T16:30:27.305Z,5.30
2023-01-17T16:32:56.451Z,4.13
2023-01-17T16:35:30.540Z,3.22
2023-01-17T16:38:06.919Z,3.35
2023-01-17T16:40:39.280Z,3.78
2023-01-17T16:43:05.976Z,3.10
2023-01-17T16:45:40.363Z,2.35
2023-01-17T16:50:33.588Z,4.25
2023-01-17T16:53:00.243Z,7.65
2023-01-17T16:55:27.010Z,3.10
2023-01-17T16:57:57.395Z,3.63
2023-01-17T17:00:24.784Z,2.78
2023-01-17T17:02:52.801Z,3.88
2023-01-17T17:05:19.753Z,3.97
2023-01-17T17:07:50.802Z,4.57
2023-01-17T17:10:19.730Z,6.30
2023-01-17T17:12:46.579Z,5.35
2023-01-17T17:15:13.449Z,12.02
2023-01-17T17:17:42.206Z,7.53
2023-01-17T17:20:14.662Z,9.23
2023-01-17T17:22:43.963Z,8.18
2023-01-17T17:25:11.998Z,4.63
2023-01-17T17:27:38.980Z,6.85
2023-01-17T17:30:06.628Z,7.80
2023-01-17T17:32:33.419Z,7.82
2023-01-17T17:35:01.766Z,6.78
2023-01-17T17:37:31.789Z,9.52
2023-01-17T17:39:58.427Z,5.25
2023-01-17T17:42:25.600Z,5.88
2023-01-17T17:44:52.311Z,4.97
2023-01-17T17:47:19.366Z,4.18
2023-01-17T17:49:45.990Z,4.25
2023-01-17T17:52:15.116Z,6.95
2023-01-17T17:54:41.746Z,5.03
2023-01-17T17:57:09.065Z,12.07
2023-01-17T17:59:35.693Z,8.55
2023-01-17T18:02:02.407Z,4.75
2023-01-17T18:04:29.645Z,6.05
2023-01-17T18:07:00.588Z,6.18
2023-01-17T18:09:27.261Z,5.50
2023-01-17T18:11:54.008Z,6.03
2023-01-17T18:14:23.877Z,4.25
2023-01-17T18:16:51.342Z,9.70
2023-01-17T18:19:23.145Z,13.73
2023-01-17T18:21:51.315Z,21.10
2023-01-17T18:24:20.452Z,16.75
2023-01-17T18:26:50.192Z,12.90
2023-01-17T18:29:18.460Z,8.82
2023-01-17T18:31:45.971Z,6.63
2023-01-17T18:34:19.234Z,12.55
2023-01-17T18:36:45.916Z,14.98
2023-01-17T18:39:24.486Z,21.75
2023-01-17T18:41:51.866Z,17.48
2023-01-17T18:44:22.302Z,12.55
2023-01-17T18:46:50.313Z,12.20
2023-01-17T18:49:19.124Z,12.48
2023-01-17T18:51:49.063Z,7.68
2023-01-17T18:54:19.338Z,4.88
2023-01-17T18:56:46.534Z,9.05
2023-01-17T18:59:18.024Z,7.07
2023-01-17T19:01:44.909Z,8.93
2023-01-17T19:04:14.260Z,4.47
2023-01-17T19:06:44.583Z,7.57
2023-01-17T19:09:15.332Z,5.20
2023-01-17T19:11:44.462Z,9.50
2023-01-17T19:14:15.390Z,6.15
2023-01-17T19:16:42.817Z,6.03
2023-01-17T19:19:13.600Z,6.80
2023-01-17T19:21:40.370Z,9.65
2023-01-17T19:24:07.600Z,5.22
2023-01-17T19:26:34.364Z,6.85
2023-01-17T19:29:03.650Z,9.55
2023-01-17T19:31:31.357Z,9.30
2023-01-17T19:33:59.672Z,12.65
2023-01-17T19:36:31.659Z,9.70
2023-01-17T19:39:05.552Z,12.68
2023-01-17T19:41:35.086Z,9.90
2023-01-17T19:44:07.719Z,11.23
2023-01-17T19:46:35.844Z,7.10
2023-01-17T19:49:04.298Z,11.30
2023-01-17T19:51:30.991Z,10.98
2023-01-17T19:54:01.038Z,7.78
2023-01-17T19:56:28.691Z,8.80
2023-01-17T19:58:57.139Z,10.35
2023-01-17T20:01:27.730Z,7.80
2023-01-17T20:03:57.633Z,9.88
2023-01-17T20:06:26.889Z,13.32
2023-01-17T20:08:53.556Z,9.48
2023-01-17T20:11:22.662Z,11.57
2023-01-17T20:13:55.570Z,10.43
2023-01-17T20:16:23.671Z,7.82
2023-01-17T20:18:51.034Z,9.05
2023-01-17T20:21:20.681Z,8.27
2023-01-17T20:23:48.436Z,9.50
2023-01-17T20:26:20.510Z,11.15
2023-01-17T20:28:49.481Z,16.52
2023-01-17T20:31:19.181Z,12.27
2023-01-17T20:33:47.031Z,8.60
2023-01-17T20:36:16.609Z,8.93
2023-01-17T20:38:44.531Z,10.15
2023-01-17T20:41:16.121Z,9.10
2023-01-17T20:43:44.522Z,13.45
2023-01-17T20:46:12.070Z,11.07
2023-01-17T20:48:44.912Z,13.02
2023-01-17T20:51:11.990Z,15.73
2023-01-17T20:53:40.778Z,12.52
2023-01-17T20:56:08.766Z,13.85
2023-01-17T20:58:35.798Z,14.05
2023-01-17T21:01:02.767Z,10.55
2023-01-17T21:03:29.591Z,9.05
2023-01-17T21:06:01.691Z,10.23
2023-01-17T21:08:33.227Z,10.35
2023-01-17T21:11:00.020Z,11.68
2023-01-17T21:13:26.656Z,9.02
2023-01-17T21:15:53.768Z,10.65
2023-01-17T21:18:22.894Z,10.57
2023-01-17T21:20:49.911Z,12.23
2023-01-17T21:23:20.124Z,11.50
2023-01-17T21:25:55.486Z,11.75
2023-01-17T21:28:23.419Z,10.25
2023-01-17T21:30:50.482Z,10.63
2023-01-17T21:33:18.443Z,12.73
2023-01-17T21:35:45.671Z,12.68
2023-01-17T21:38:16.176Z,10.60
2023-01-17T21:40:44.339Z,11.75
2023-01-17T21:43:12.016Z,10.75
2023-01-17T21:45:39.994Z,14.77
2023-01-17T21:48:07.677Z,10.30
2023-01-17T21:50:34.482Z,13.85
2023-01-17T21:53:01.117Z,12.63
2023-01-17T21:55:46.225Z,15.27
2023-01-17T21:58:35.850Z,19.52
2023-01-17T22:01:15.938Z,12.43
2023-01-17T22:03:43.600Z,12.25
2023-01-17T22:06:10.286Z,13.00
2023-01-17T22:08:37.629Z,14.05
2023-01-17T22:11:07.286Z,13.38
2023-01-17T22:13:35.656Z,11.88
2023-01-17T22:16:04.314Z,12.50
2023-01-17T22:18:33.063Z,11.82
2023-01-17T22:21:07.607Z,11.45
2023-01-17T22:26:06.879Z,10.85
2023-01-17T22:28:33.803Z,14.73
2023-01-17T22:31:11.368Z,13.50
2023-01-17T22:33:39.029Z,13.10
2023-01-17T22:36:06.244Z,10.98
2023-01-17T22:38:34.018Z,10.90
2023-01-17T22:41:08.039Z,11.75
2023-01-17T22:43:40.451Z,13.57
2023-01-17T22:46:09.606Z,13.45
2023-01-17T22:48:37.557Z,13.13
2023-01-17T22:51:06.684Z,12.32
2023-01-17T22:53:33.688Z,11.25
2023-01-17T22:56:05.629Z,9.50
2023-01-17T22:58:34.082Z,16.08
2023-01-17T23:01:12.225Z,13.10
2023-01-17T23:03:40.830Z,10.55
2023-01-17T23:06:12.547Z,9.90
2023-01-17T23:08:41.604Z,10.48
2023-01-17T23:11:39.207Z,9.82
2023-01-17T23:14:08.398Z,10.30
2023-01-17T23:16:55.051Z,10.85
2023-01-17T23:19:24.755Z,13.35
2023-01-17T23:22:15.057Z,10.57
2023-01-17T23:25:04.978Z,11.63
2023-01-17T23:27:54.882Z,9.48
2023-01-17T23:30:36.511Z,11.85
2023-01-17T23:33:06.505Z,12.77
2023-01-17T23:35:41.295Z,8.60
2023-01-17T23:38:33.634Z,11.98
2023-01-17T23:41:22.327Z,9.75
2023-01-17T23:43:53.327Z,9.68
2023-01-17T23:46:20.742Z,10.48
2023-01-17T23:48:48.438Z,12.60
2023-01-17T23:51:15.270Z,10.48
2023-01-17T23:53:42.482Z,10.70
2023-01-17T23:56:23.454Z,10.90
2023-01-17T23:58:50.680Z,10.65
